Time;durP1;ratioP1;P1;durP2;ratioP2;P2;SDS_P1;SDS_P2;PMS_P1;PMS_P2;Temp;Humidity;BMP_temperature;BMP_pressure;BME280_temperature;BME280_humidity;BME280_pressure;Samples;Min_cycle;Max_cycle;Signal;HPM_P1;HPM_P2
2022/05/27 00:01:14;;;;;;;4.32;1.77;;;;;;;14.80;67.52;101907.06;5000275;28;20029;-77
2022/05/27 00:03:39;;;;;;;7.25;1.92;;;;;;;14.78;67.65;101911.50;5009979;28;20029;-78
2022/05/27 00:06:06;;;;;;;3.83;1.80;;;;;;;14.78;67.45;101903.63;5010044;28;20026;-78
2022/05/27 00:08:31;;;;;;;7.88;1.98;;;;;;;14.77;67.94;101896.69;5006298;28;20026;-78
2022/05/27 00:10:59;;;;;;;5.75;1.80;;;;;;;14.75;68.26;101896.72;5006335;28;20456;-78
2022/05/27 00:13:25;;;;;;;7.35;1.83;;;;;;;14.75;68.19;101891.50;5002547;28;20346;-78
2022/05/27 00:15:50;;;;;;;6.38;2.22;;;;;;;14.71;68.33;101888.06;5006777;28;20037;-78
2022/05/27 00:18:15;;;;;;;4.47;1.70;;;;;;;14.71;68.27;101897.69;5006343;28;20062;-78
2022/05/27 00:20:41;;;;;;;6.13;1.92;;;;;;;14.69;68.42;101892.47;5004228;28;20079;-78
2022/05/27 00:23:06;;;;;;;5.53;1.92;;;;;;;14.68;68.40;101888.19;4984020;28;20408;-78
2022/05/27 00:25:32;;;;;;;4.40;1.85;;;;;;;14.69;68.30;101884.63;5004918;28;20029;-78
2022/05/27 00:27:57;;;;;;;3.33;1.80;;;;;;;14.70;68.16;101891.59;5007600;28;20128;-78
2022/05/27 00:30:24;;;;;;;4.47;1.92;;;;;;;14.70;68.19;101885.50;5010118;28;20025;-78
2022/05/27 00:32:49;;;;;;;4.80;1.92;;;;;;;14.70;68.33;101891.59;5007221;28;20182;-78
2022/05/27 00:35:15;;;;;;;5.45;2.10;;;;;;;14.68;68.29;101885.56;5006363;28;20033;-78
2022/05/27 00:37:40;;;;;;;5.70;1.75;;;;;;;14.70;68.55;101888.97;5006158;28;20049;-78
2022/05/27 00:40:06;;;;;;;2.85;1.50;;;;;;;14.69;68.41;101886.41;5006373;28;20125;-78
2022/05/27 00:42:32;;;;;;;3.72;1.70;;;;;;;14.69;68.48;101887.25;5007875;28;20021;-78
2022/05/27 00:44:57;;;;;;;6.63;2.05;;;;;;;14.69;68.48;101881.16;5004085;28;20025;-78
2022/05/27 00:47:35;;;;;;;4.03;2.10;;;;;;;14.70;68.22;101888.13;5004891;28;20026;-78
2022/05/27 00:50:05;;;;;;;6.53;2.15;;;;;;;14.67;68.78;101885.53;5007361;28;20404;-78
2022/05/27 00:52:34;;;;;;;4.80;1.92;;;;;;;14.68;68.93;101887.31;5003715;28;20026;-78
2022/05/27 00:55:01;;;;;;;4.53;2.08;;;;;;;14.67;69.04;101885.53;5006726;28;20053;-78
2022/05/27 00:57:35;;;;;;;5.55;2.15;;;;;;;14.66;68.76;101876.84;5002731;28;20037;-78
2022/05/27 01:00:06;;;;;;;6.47;2.38;;;;;;;14.67;69.20;101881.19;5007414;28;20053;-78
2022/05/27 01:02:34;;;;;;;9.55;2.30;;;;;;;14.66;69.73;101875.97;4988902;28;20108;-78
2022/05/27 01:05:01;;;;;;;10.10;2.45;;;;;;;14.65;70.21;101880.38;5005966;28;20037;-78
2022/05/27 01:07:26;;;;;;;7.97;2.45;;;;;;;14.61;70.61;101865.63;5003995;28;20028;-78
2022/05/27 01:09:52;;;;;;;6.22;2.10;;;;;;;14.60;71.05;101874.38;5003613;28;20025;-78
2022/05/27 01:12:37;;;;;;;9.20;2.38;;;;;;;14.57;71.78;101866.59;5007391;28;20034;-78
2022/05/27 01:15:26;;;;;;;6.40;2.35;;;;;;;14.55;71.96;101868.38;5009987;28;20032;-78
2022/05/27 01:18:02;;;;;;;7.13;2.63;;;;;;;14.49;72.33;101868.56;5010840;28;20045;-78
2022/05/27 01:20:42;;;;;;;9.27;2.50;;;;;;;14.44;72.95;101865.19;5008505;28;20050;-78
2022/05/27 01:23:10;;;;;;;11.35;2.88;;;;;;;14.40;73.48;101869.66;5009747;28;20390;-78
2022/05/27 01:25:57;;;;;;;8.10;2.97;;;;;;;14.37;71.77;101874.97;4990609;28;20034;-78
2022/05/27 01:28:46;;;;;;;8.35;2.85;;;;;;;14.33;71.95;101866.34;5004375;28;20026;-78
2022/05/27 01:31:46;;;;;;;7.75;3.03;;;;;;;14.27;72.94;101874.34;5007689;28;20487;-78
2022/05/27 01:34:21;;;;;;;5.80;2.58;;;;;;;14.24;73.46;101863.94;5009417;28;20045;-78
2022/05/27 01:37:06;;;;;;;6.75;3.15;;;;;;;14.22;74.19;101868.34;5010968;28;20026;-78
2022/05/27 01:39:58;;;;;;;6.63;2.92;;;;;;;14.18;73.58;101874.53;5008474;28;20032;-78
2022/05/27 01:42:52;;;;;;;10.32;3.33;;;;;;;14.13;74.34;101863.34;5007053;28;20378;-78
2022/05/27 01:45:24;;;;;;;12.45;3.15;;;;;;;14.10;75.80;101872.13;5008817;28;21624;-78
2022/05/27 01:48:02;;;;;;;7.00;3.05;;;;;;;14.06;75.55;101871.34;5006889;28;20065;-78
2022/05/27 01:50:43;;;;;;;8.88;3.35;;;;;;;14.02;76.67;101863.59;5009244;28;20127;-78
2022/05/27 01:53:16;;;;;;;8.40;3.22;;;;;;;13.98;77.10;101860.22;5005638;28;20041;-78
2022/05/27 01:56:08;;;;;;;8.00;3.28;;;;;;;13.97;77.27;101863.72;5007239;28;20481;-78
2022/05/27 01:58:39;;;;;;;6.47;3.20;;;;;;;13.94;77.51;101862.00;5008173;28;20400;-78
2022/05/27 02:01:09;;;;;;;9.35;3.50;;;;;;;13.94;77.73;101869.03;5009310;28;20022;-78
2022/05/27 02:03:39;;;;;;;6.63;3.05;;;;;;;13.91;77.65;101866.47;5011396;28;20025;-78
2022/05/27 02:06:20;;;;;;;8.82;3.30;;;;;;;13.88;77.40;101867.41;5010802;28;20124;-78
2022/05/27 02:08:53;;;;;;;10.23;3.60;;;;;;;13.85;78.01;101864.84;5008819;28;20018;-78
2022/05/27 02:11:21;;;;;;;7.25;3.58;;;;;;;13.82;78.26;101864.91;5014523;28;20034;-78
2022/05/27 02:13:52;;;;;;;7.10;3.70;;;;;;;13.81;78.64;101878.91;5011841;28;20065;-78
2022/05/27 02:16:24;;;;;;;6.78;3.65;;;;;;;13.81;78.72;101918.13;5012582;28;20026;-79
2022/05/27 02:18:54;;;;;;;7.30;3.72;;;;;;;13.71;79.41;101914.84;5008007;28;20073;-78
2022/05/27 02:21:31;;;;;;;6.40;2.70;;;;;;;13.59;78.28;101912.50;5010392;28;20109;-78
2022/05/27 02:24:02;;;;;;;5.90;2.30;;;;;;;13.43;78.97;101901.50;5007179;28;20544;-78
2022/05/27 02:26:32;;;;;;;3.58;2.22;;;;;;;13.34;79.45;101902.50;5010404;28;20185;-78
2022/05/27 02:29:08;;;;;;;5.60;1.88;;;;;;;13.29;78.68;101905.22;5009195;28;20362;-78
2022/05/27 02:31:37;;;;;;;3.70;1.60;;;;;;;13.18;79.54;101897.59;5009592;28;20087;-78
2022/05/27 02:37:00;;;;;;;2.83;1.70;;;;;;;13.08;79.55;101893.44;5008455;28;20092;-78
2022/05/27 02:39:26;;;;;;;;;;;;;;;13.06;77.47;101897.84;5010263;28;20457;-78
2022/05/27 02:42:15;;;;;;;3.38;1.33;;;;;;;12.93;79.31;101897.22;4993264;28;19913;-78
2022/05/27 02:44:56;;;;;;;3.70;1.40;;;;;;;12.80;79.69;101888.75;5008723;28;20421;-78
2022/05/27 02:47:41;;;;;;;5.20;1.55;;;;;;;12.74;80.69;101878.41;5007487;28;20055;-78
2022/05/27 02:50:26;;;;;;;2.15;1.30;;;;;;;12.73;80.14;101884.53;5009406;28;20182;-78
2022/05/27 02:52:57;;;;;;;3.50;1.50;;;;;;;12.69;81.58;101880.25;5006453;28;20019;-78
2022/05/27 02:55:45;;;;;;;4.10;1.50;;;;;;;12.71;80.67;101875.84;5006558;28;20030;-78
2022/05/27 02:58:10;;;;;;;2.03;1.40;;;;;;;12.73;82.22;101880.16;5001762;28;20374;-78
2022/05/27 03:00:39;;;;;;;2.85;1.38;;;;;;;12.78;82.31;101876.59;5010601;28;20484;-79
2022/05/27 03:03:04;;;;;;;3.80;1.60;;;;;;;12.83;82.53;101878.22;5008729;28;20397;-78
2022/05/27 03:06:08;;;;;;;5.82;1.50;;;;;;;12.87;81.24;101873.84;5007513;28;20034;-78
2022/05/27 03:08:54;;;;;;;4.18;1.73;;;;;;;12.89;82.16;101870.28;5010971;28;20045;-79
2022/05/27 03:11:45;;;;;;;3.58;1.50;;;;;;;12.93;81.61;101863.25;5008193;28;20124;-78
2022/05/27 03:14:44;;;;;;;6.22;1.50;;;;;;;12.97;81.21;101871.91;5010943;28;20029;-79
2022/05/27 03:17:20;;;;;;;2.95;1.50;;;;;;;12.95;80.94;101861.47;5010492;28;20034;-79
2022/05/27 03:20:22;;;;;;;6.93;1.67;;;;;;;12.93;80.58;101870.25;5007501;28;20038;-78
2022/05/27 03:22:59;;;;;;;2.92;1.42;;;;;;;12.87;80.87;101866.84;5010580;28;20036;-78
2022/05/27 03:25:41;;;;;;;2.80;1.45;;;;;;;12.80;80.96;101867.88;5007352;28;20026;-78
2022/05/27 03:28:25;;;;;;;;;;;;;;;12.82;78.67;101868.66;5009338;28;20026;-78
2022/05/27 03:31:04;;;;;;;2.60;1.25;;;;;;;12.79;80.45;101863.53;5002867;28;19913;-78
2022/05/27 03:33:37;;;;;;;3.80;1.45;;;;;;;12.75;81.07;101872.31;5009777;28;20128;-78
2022/05/27 03:36:18;;;;;;;1.83;1.30;;;;;;;12.71;81.38;101870.63;5002625;28;20108;-78
2022/05/27 03:38:59;;;;;;;2.83;1.50;;;;;;;12.70;81.71;101861.94;5008206;28;20025;-78
2022/05/27 03:41:52;;;;;;;5.85;1.60;;;;;;;12.70;81.99;101854.13;4989782;28;20041;-78
2022/05/27 03:44:20;;;;;;;3.70;1.55;;;;;;;12.75;82.97;101854.03;5004816;28;20021;-78
2022/05/27 03:46:49;;;;;;;5.45;1.50;;;;;;;12.79;82.65;101852.22;5005538;28;20018;-79
2022/05/27 03:49:15;;;;;;;5.82;1.70;;;;;;;12.81;82.86;101840.84;5009196;28;20128;-79
2022/05/27 03:51:54;;;;;;;6.03;1.70;;;;;;;12.87;82.38;101851.19;5008048;28;20148;-79
2022/05/27 03:54:21;;;;;;;7.85;1.70;;;;;;;12.89;82.66;101854.63;5007441;28;20115;-79
2022/05/27 03:56:46;;;;;;;4.47;1.75;;;;;;;12.90;82.65;101856.34;5005719;28;20022;-79
2022/05/27 03:59:13;;;;;;;6.53;1.83;;;;;;;12.94;82.61;101851.06;5005334;28;20076;-79
2022/05/27 04:01:41;;;;;;;5.32;2.42;;;;;;;12.96;82.48;101849.28;5007304;28;20042;-79
2022/05/27 04:04:10;;;;;;;3.95;1.90;;;;;;;12.97;82.44;101854.47;5003743;28;20137;-79
2022/05/27 04:06:35;;;;;;;5.07;2.00;;;;;;;12.99;82.71;101854.44;4988285;28;20029;-79
2022/05/27 04:09:01;;;;;;;4.60;2.03;;;;;;;13.02;82.77;101854.38;5001930;28;20028;-79
2022/05/27 04:11:27;;;;;;;5.00;2.03;;;;;;;13.03;82.38;101861.31;5009227;28;20025;-79
2022/05/27 04:13:53;;;;;;;5.18;2.10;;;;;;;13.05;82.32;101862.16;5002531;28;20022;-79
2022/05/27 04:16:18;;;;;;;3.90;1.88;;;;;;;13.06;82.37;101856.88;5001859;28;20034;-79
2022/05/27 04:18:44;;;;;;;4.00;2.05;;;;;;;13.09;82.51;101876.88;5001305;28;20051;-79
2022/05/27 04:21:09;;;;;;;3.83;1.95;;;;;;;13.11;82.34;101874.22;4988894;28;20041;-79
2022/05/27 04:23:35;;;;;;;3.67;2.00;;;;;;;13.12;82.37;101871.59;5002273;28;20117;-79
2022/05/27 04:26:01;;;;;;;4.88;2.30;;;;;;;13.14;82.71;101874.19;5001666;28;20447;-79
2022/05/27 04:28:26;;;;;;;4.60;2.20;;;;;;;13.15;82.57;101874.13;5001828;28;20064;-79
2022/05/27 04:30:51;;;;;;;4.50;2.00;;;;;;;13.17;82.57;101874.97;5002016;28;20022;-79
2022/05/27 04:33:17;;;;;;;6.13;2.50;;;;;;;13.18;82.60;101875.84;5003211;28;20022;-78
2022/05/27 04:35:42;;;;;;;5.60;2.28;;;;;;;13.21;82.91;101874.03;5002092;28;20096;-78
2022/05/27 04:38:08;;;;;;;5.97;2.05;;;;;;;13.24;82.97;101885.31;5004352;28;20200;-79
2022/05/27 04:40:34;;;;;;;3.00;1.95;;;;;;;13.27;83.07;101877.41;5006119;28;20034;-79
2022/05/27 04:43:01;;;;;;;3.85;2.25;;;;;;;13.29;83.31;101878.25;5003196;28;20500;-79
2022/05/27 04:45:27;;;;;;;4.97;2.50;;;;;;;13.33;83.26;101885.09;5005302;28;20022;-78
2022/05/27 04:47:53;;;;;;;3.22;2.20;;;;;;;13.35;83.25;101878.09;5009202;28;20029;-79
2022/05/27 04:50:19;;;;;;;4.03;2.40;;;;;;;13.39;83.75;101881.53;5011444;28;20065;-79
2022/05/27 04:52:44;;;;;;;6.78;2.70;;;;;;;13.43;83.58;101885.81;5005693;28;20022;-79
2022/05/27 04:55:12;;;;;;;4.97;2.30;;;;;;;13.44;83.26;101883.19;5011141;28;20116;-79
2022/05/27 04:57:51;;;;;;;5.40;2.42;;;;;;;13.47;83.38;101888.34;5010644;28;20030;-79
2022/05/27 05:00:20;;;;;;;4.78;2.45;;;;;;;13.50;83.59;101885.66;5005465;28;20026;-79
2022/05/27 05:02:46;;;;;;;5.07;2.63;;;;;;;13.56;83.65;101882.06;5004106;28;20025;-79
2022/05/27 05:05:14;;;;;;;4.53;2.47;;;;;;;13.60;83.40;101888.94;5011472;28;22018;-78
2022/05/27 05:07:40;;;;;;;5.50;2.78;;;;;;;13.63;83.19;101878.41;5009086;28;20109;-79
2022/05/27 05:10:08;;;;;;;6.20;2.70;;;;;;;13.67;83.93;101879.19;5005610;28;20106;-79
2022/05/27 05:12:34;;;;;;;6.32;3.00;;;;;;;13.71;83.44;101880.00;5008032;28;20025;-78
2022/05/27 05:14:59;;;;;;;7.57;3.20;;;;;;;13.72;83.54;101882.56;5006365;28;20037;-79
2022/05/27 05:17:24;;;;;;;5.72;3.20;;;;;;;13.77;83.77;101891.19;5008329;28;20018;-78
2022/05/27 05:19:53;;;;;;;7.10;3.20;;;;;;;13.79;83.69;101894.63;5008782;28;20036;-78
2022/05/27 05:22:19;;;;;;;7.50;3.53;;;;;;;13.81;84.26;101898.09;4992621;28;20020;-79
2022/05/27 05:24:44;;;;;;;9.07;3.80;;;;;;;13.85;84.20;101888.41;5008001;28;20029;-78
2022/05/27 05:27:10;;;;;;;10.63;4.05;;;;;;;13.88;83.87;101897.91;5007221;28;20366;-78
2022/05/27 05:29:35;;;;;;;8.52;3.80;;;;;;;13.91;84.22;101905.72;5006882;28;20037;-79
2022/05/27 05:32:01;;;;;;;8.00;3.40;;;;;;;13.91;83.35;101910.94;5006551;28;20021;-78
2022/05/27 05:34:26;;;;;;;9.68;3.85;;;;;;;13.89;83.40;101910.97;5005673;28;20036;-78
2022/05/27 05:36:54;;;;;;;8.88;3.40;;;;;;;13.90;82.21;101911.84;5006582;28;20032;-78
2022/05/27 05:39:19;;;;;;;6.85;3.35;;;;;;;13.87;82.97;101906.66;4987665;28;20401;-78
2022/05/27 05:41:56;;;;;;;9.48;3.72;;;;;;;13.87;82.23;101917.13;5005232;28;20030;-78
2022/05/27 05:44:21;;;;;;;7.28;2.88;;;;;;;13.87;81.49;101920.63;5007249;28;20034;-78
2022/05/27 05:46:48;;;;;;;9.27;3.60;;;;;;;13.88;81.08;101924.06;5006454;28;20099;-78
2022/05/27 05:49:13;;;;;;;9.40;4.10;;;;;;;13.87;81.49;101917.13;5001854;28;20025;-78
2022/05/27 05:51:38;;;;;;;11.00;3.55;;;;;;;13.88;82.01;101921.47;5005001;28;20048;-80
2022/05/27 05:54:04;;;;;;;8.55;3.50;;;;;;;13.90;81.85;101928.41;5003527;28;20030;-78
2022/05/27 05:56:31;;;;;;;11.30;3.67;;;;;;;13.91;81.39;101922.28;5006749;28;21770;-78
2022/05/27 05:58:56;;;;;;;7.72;3.17;;;;;;;13.91;80.48;101924.03;5005445;28;20057;-78
2022/05/27 06:01:21;;;;;;;10.32;3.75;;;;;;;13.95;80.20;101930.91;5002895;28;20109;-78
2022/05/27 06:03:46;;;;;;;8.88;3.40;;;;;;;13.98;80.40;101928.22;5005831;28;20097;-78
2022/05/27 06:06:12;;;;;;;9.10;3.30;;;;;;;14.01;80.39;101940.38;5006592;28;20045;-78
2022/05/27 06:08:37;;;;;;;12.38;3.60;;;;;;;14.01;81.02;101930.75;5004024;28;20120;-78
2022/05/27 06:11:09;;;;;;;11.52;3.30;;;;;;;14.05;80.85;101931.56;5003144;28;20384;-78
2022/05/27 06:13:40;;;;;;;9.80;3.10;;;;;;;14.07;78.50;101942.88;5007059;28;20029;-78
2022/05/27 06:16:06;;;;;;;8.80;2.80;;;;;;;14.02;78.16;101948.16;5006653;28;20034;-78
2022/05/27 06:18:32;;;;;;;9.15;2.90;;;;;;;13.99;77.05;101943.03;5004133;28;20524;-77
2022/05/27 06:20:57;;;;;;;10.57;2.65;;;;;;;13.96;76.09;101937.88;5004052;28;20026;-78
2022/05/27 06:23:27;;;;;;;7.75;2.35;;;;;;;13.95;76.33;101944.00;4990319;28;20030;-78
2022/05/27 06:25:57;;;;;;;6.25;2.55;;;;;;;13.97;77.81;101939.59;5006740;28;20021;-78
2022/05/27 06:36:35;;;;;;;6.70;2.00;;;;;;;13.95;74.07;101957.91;5004802;28;20632;-78
2022/05/27 06:39:00;;;;;;;8.10;2.10;;;;;;;13.96;73.35;101958.78;5005443;28;20026;-78
2022/05/27 06:41:26;;;;;;;6.07;1.92;;;;;;;13.97;73.44;101947.44;5008351;28;20021;-78
2022/05/27 06:43:51;;;;;;;5.53;2.00;;;;;;;14.00;73.69;101959.59;5005785;28;20113;-78
2022/05/27 06:46:16;;;;;;;6.07;2.00;;;;;;;14.03;73.22;101949.06;5005804;28;20064;-78
2022/05/27 06:48:41;;;;;;;6.68;2.20;;;;;;;14.06;71.75;101947.22;5007222;28;20034;-79
2022/05/27 06:51:07;;;;;;;5.07;1.85;;;;;;;14.06;72.53;101949.00;5005823;28;20034;-78
2022/05/27 06:53:33;;;;;;;7.43;2.03;;;;;;;14.07;71.77;101941.09;5005809;28;20477;-78
2022/05/27 06:55:58;;;;;;;7.25;2.17;;;;;;;14.09;73.24;101947.16;5006682;28;20054;-78
2022/05/27 06:58:23;;;;;;;6.57;1.73;;;;;;;14.15;71.67;101947.91;5006941;28;20041;-78
2022/05/27 07:00:48;;;;;;;7.10;2.13;;;;;;;14.22;71.67;101952.09;5005877;28;20161;-78
2022/05/27 07:03:14;;;;;;;5.07;1.95;;;;;;;14.27;70.59;101958.94;5004470;28;20034;-78
2022/05/27 07:05:39;;;;;;;6.93;2.47;;;;;;;14.32;70.88;101958.84;5006788;28;21563;-78
2022/05/27 07:08:06;;;;;;;5.07;1.50;;;;;;;14.39;69.91;101965.66;5003303;28;20026;-78
2022/05/27 07:10:32;;;;;;;7.80;1.80;;;;;;;14.46;67.62;101968.13;5005226;28;20052;-78
2022/05/27 07:12:59;;;;;;;7.60;1.90;;;;;;;14.47;67.25;101970.69;5005272;28;20481;-78
2022/05/27 07:15:27;;;;;;;7.28;1.73;;;;;;;14.51;70.83;101958.41;5006484;28;20022;-78
2022/05/27 07:17:52;;;;;;;7.07;2.00;;;;;;;14.53;68.19;101964.44;5008905;28;20049;-78
2022/05/27 07:20:18;;;;;;;6.03;1.50;;;;;;;14.54;69.65;101961.81;5011514;28;20052;-78
2022/05/27 07:22:43;;;;;;;6.35;1.80;;;;;;;14.59;66.71;101968.69;5009814;28;20473;-78
2022/05/27 07:25:12;;;;;;;5.65;1.92;;;;;;;14.60;67.01;101970.44;5005788;28;20038;-78
2022/05/27 07:27:38;;;;;;;9.15;1.90;;;;;;;14.61;66.00;101967.75;5021568;28;20048;-78
2022/05/27 07:30:04;;;;;;;6.93;1.50;;;;;;;14.67;67.70;101962.38;5013217;28;20034;-78
2022/05/27 07:32:33;;;;;;;8.82;1.98;;;;;;;14.74;67.91;101957.00;5018634;28;20121;-79
2022/05/27 07:34:58;;;;;;;8.25;2.13;;;;;;;14.76;65.23;101970.91;5009537;28;20125;-79
2022/05/27 07:37:23;;;;;;;6.10;1.75;;;;;;;14.71;64.89;101964.03;5005964;28;20053;-78
2022/05/27 07:39:49;;;;;;;6.25;1.60;;;;;;;14.68;65.65;101978.97;5008696;28;20041;-78
2022/05/27 07:42:14;;;;;;;5.93;1.58;;;;;;;14.66;65.43;101973.75;5013904;28;20497;-78
2022/05/27 07:44:40;;;;;;;4.03;1.60;;;;;;;14.66;64.92;101981.59;5009124;28;20040;-78
2022/05/27 07:47:06;;;;;;;10.70;1.88;;;;;;;14.67;66.67;101983.34;5010192;28;20029;-78
2022/05/27 07:49:31;;;;;;;8.55;2.03;;;;;;;14.72;66.64;101985.88;5007500;28;20183;-78
2022/05/27 07:51:56;;;;;;;6.93;2.30;;;;;;;14.77;65.16;101990.97;5000470;28;20057;-79
2022/05/27 07:54:22;;;;;;;7.82;1.90;;;;;;;14.81;65.50;101984.78;5003614;28;20689;-78
2022/05/27 07:56:47;;;;;;;4.53;1.50;;;;;;;14.85;65.63;101975.94;5009524;28;20084;-79
2022/05/27 07:59:12;;;;;;;5.32;2.13;;;;;;;14.99;64.12;101984.31;5010539;28;20029;-79
2022/05/27 08:01:39;;;;;;;8.27;2.00;;;;;;;15.02;63.97;101984.22;4991229;28;20441;-79
2022/05/27 08:04:04;;;;;;;6.70;1.88;;;;;;;15.03;63.84;101985.91;5006688;28;20026;-79
2022/05/27 08:06:30;;;;;;;7.20;1.83;;;;;;;15.07;65.47;101991.09;4999924;28;20033;-79
2022/05/27 08:08:55;;;;;;;6.10;1.80;;;;;;;15.10;64.66;101986.66;5004787;28;20066;-79
2022/05/27 08:11:20;;;;;;;8.85;1.92;;;;;;;15.06;63.33;102000.72;5004312;28;20042;-78
2022/05/27 08:13:46;;;;;;;6.45;1.85;;;;;;;15.02;63.76;101993.84;5002642;28;20029;-78
2022/05/27 08:16:11;;;;;;;5.15;1.80;;;;;;;14.97;64.45;101991.34;5006035;28;20057;-78
2022/05/27 08:18:37;;;;;;;8.45;1.80;;;;;;;14.94;63.72;102006.28;5003438;28;20046;-78
2022/05/27 08:21:03;;;;;;;6.50;1.83;;;;;;;14.85;64.49;101996.91;5006978;28;20048;-78
2022/05/27 08:23:28;;;;;;;9.80;2.15;;;;;;;14.86;64.95;102009.06;5012417;28;20036;-78
2022/05/27 08:25:55;;;;;;;7.65;1.73;;;;;;;14.86;65.18;101998.59;5011423;28;20034;-78
2022/05/27 08:28:24;;;;;;;7.32;1.90;;;;;;;14.87;63.81;102002.94;5012172;28;20033;-79
2022/05/27 08:30:50;;;;;;;7.55;2.00;;;;;;;14.93;63.39;102004.56;4989333;28;20030;-77
2022/05/27 08:33:15;;;;;;;8.05;2.17;;;;;;;14.97;63.56;102001.81;4998184;28;20799;-77
2022/05/27 08:38:34;;;;;;;7.43;1.75;;;;;;;15.07;64.98;101998.94;5005734;28;20817;-77
2022/05/27 08:41:07;;;;;;;6.88;1.95;;;;;;;15.19;59.75;102009.13;5004511;28;20030;-77
2022/05/27 08:43:53;;;;;;;6.90;1.85;;;;;;;15.26;62.26;102000.19;4999648;28;20029;-77
2022/05/27 08:46:37;;;;;;;9.07;1.92;;;;;;;15.38;61.93;102008.63;5000616;28;20029;-78
2022/05/27 08:49:07;;;;;;;7.13;1.88;;;;;;;15.42;60.82;101998.03;5003910;28;20516;-77
2022/05/27 08:51:38;;;;;;;8.43;2.10;;;;;;;15.42;59.03;101998.03;5003419;28;20022;-78
2022/05/27 08:54:12;;;;;;;7.03;2.15;;;;;;;15.33;58.46;102014.88;5003830;28;20030;-78
2022/05/27 08:59:42;;;;;;;7.28;1.85;;;;;;;15.03;60.89;102022.63;4998755;28;20083;-78
2022/05/27 09:02:29;;;;;;;8.40;1.67;;;;;;;15.09;61.19;102012.88;5002340;28;20045;-77
2022/05/27 09:05:14;;;;;;;5.82;1.60;;;;;;;15.15;60.57;102015.34;5003370;28;20030;-78
2022/05/27 09:07:47;;;;;;;7.65;2.30;;;;;;;15.26;60.66;102022.94;4983862;28;20034;-78
2022/05/27 09:10:17;;;;;;;7.32;1.90;;;;;;;15.34;60.25;101999.97;5006713;28;20607;-78
2022/05/27 09:13:10;;;;;;;6.13;1.95;;;;;;;15.48;59.28;102007.47;5004995;28;20033;-77
2022/05/27 09:15:47;;;;;;;6.40;1.85;;;;;;;15.47;56.67;102011.00;5001512;28;20380;-78
2022/05/27 09:18:46;;;;;;;5.60;1.90;;;;;;;15.37;57.18;102025.28;4998945;28;20049;-78
2022/05/27 09:21:33;;;;;;;8.25;2.13;;;;;;;15.24;58.02;102022.13;5001281;28;20473;-78
2022/05/27 09:24:30;;;;;;;9.02;2.20;;;;;;;15.22;58.70;102024.75;5003161;28;20033;-78
2022/05/27 09:27:02;;;;;;;8.73;2.30;;;;;;;15.26;56.15;102026.41;5006044;28;20034;-78
2022/05/27 09:29:58;;;;;;;11.30;1.80;;;;;;;15.38;59.39;102011.25;5005705;28;20105;-78
2022/05/27 09:32:38;;;;;;;9.90;2.30;;;;;;;15.50;55.44;102023.16;5001802;28;20041;-77
2022/05/27 09:35:10;;;;;;;8.32;1.92;;;;;;;15.55;55.06;102024.75;5002995;28;20100;-77
2022/05/27 09:37:41;;;;;;;9.40;2.20;;;;;;;15.61;54.61;102026.38;5000802;28;20037;-78
2022/05/27 09:40:15;;;;;;;7.75;1.95;;;;;;;15.62;54.43;102036.81;5000083;28;20030;-78
2022/05/27 09:43:15;;;;;;;7.97;1.90;;;;;;;15.56;54.79;102036.97;5001013;28;20521;-78
2022/05/27 09:45:43;;;;;;;6.68;2.00;;;;;;;15.60;56.11;102051.72;4975586;28;20489;-78
2022/05/27 09:48:10;;;;;;;6.80;1.80;;;;;;;15.65;53.01;102048.13;5005191;28;20042;-77
2022/05/27 09:50:47;;;;;;;11.48;2.20;;;;;;;15.53;53.80;102051.94;5005331;28;20729;-77
2022/05/27 09:53:18;;;;;;;7.85;2.10;;;;;;;15.46;54.24;102046.00;5005314;28;20061;-78
2022/05/27 09:55:48;;;;;;;8.40;1.75;;;;;;;15.46;53.78;102040.75;5005513;28;20025;-77
2022/05/27 09:58:21;;;;;;;5.70;1.90;;;;;;;15.54;52.96;102058.91;5004834;28;20044;-77
2022/05/27 10:00:49;;;;;;;6.90;1.85;;;;;;;15.62;53.86;102042.06;5004557;28;20501;-77
2022/05/27 10:03:20;;;;;;;10.25;2.17;;;;;;;15.69;53.21;102047.97;5003070;28;20041;-78
2022/05/27 10:06:10;;;;;;;6.93;1.90;;;;;;;15.70;53.90;102048.84;5006176;28;20049;-80
2022/05/27 10:08:49;;;;;;;9.48;2.00;;;;;;;15.60;52.65;102070.09;5002103;28;20152;-80
2022/05/27 10:11:26;;;;;;;5.65;1.75;;;;;;;15.54;52.61;102049.25;5000527;28;20036;-78
2022/05/27 10:14:32;;;;;;;11.25;1.98;;;;;;;15.65;53.47;102040.25;5000704;28;20034;-78
2022/05/27 10:17:11;;;;;;;8.25;1.90;;;;;;;15.76;53.48;102039.06;4999621;28;20487;-78
2022/05/27 10:19:38;;;;;;;9.20;1.88;;;;;;;15.89;52.86;102041.34;4999683;28;20121;-78
2022/05/27 10:22:26;;;;;;;5.88;1.65;;;;;;;15.99;53.71;102039.31;5005201;28;20068;-77
2022/05/27 10:25:14;;;;;;;5.78;1.63;;;;;;;15.96;53.51;102053.41;4999684;28;20038;-77
2022/05/27 10:27:50;;;;;;;5.32;1.70;;;;;;;15.85;50.04;102064.19;4999609;28;20080;-77
2022/05/27 10:30:26;;;;;;;7.07;1.60;;;;;;;15.74;50.08;102053.09;5002773;28;20057;-77
2022/05/27 10:32:53;;;;;;;10.77;2.10;;;;;;;15.74;48.08;102053.09;4999787;28;20053;-77
2022/05/27 10:35:21;;;;;;;8.02;1.70;;;;;;;15.80;47.83;102054.72;5002249;28;20045;-77
2022/05/27 10:38:07;;;;;;;4.45;1.65;;;;;;;15.87;47.58;102051.03;4999008;28;21163;-77
2022/05/27 10:40:50;;;;;;;6.88;1.92;;;;;;;16.00;50.38;102048.91;4998896;28;20092;-77
2022/05/27 10:43:41;;;;;;;6.55;1.73;;;;;;;16.09;49.97;102040.75;4997216;28;20545;-77
2022/05/27 10:46:15;;;;;;;7.07;1.80;;;;;;;16.17;50.39;102074.66;4997514;28;20417;-77
2022/05/27 10:48:46;;;;;;;6.35;1.90;;;;;;;16.07;48.31;102058.31;4982916;28;20026;-77
2022/05/27 10:51:44;;;;;;;8.63;2.20;;;;;;;15.96;49.21;102061.28;5001544;28;20088;-77
2022/05/27 10:54:42;;;;;;;6.20;1.83;;;;;;;15.88;48.44;102040.50;5003579;28;20046;-76
2022/05/27 11:03:46;;;;;;;9.32;2.08;;;;;;;15.83;50.49;102058.09;5004313;28;20483;-77
2022/05/27 11:06:17;;;;;;;6.00;1.90;;;;;;;15.99;49.26;102078.69;5001260;28;20534;-78
2022/05/27 11:09:20;;;;;;;7.25;1.88;;;;;;;15.95;49.00;102056.94;5002451;28;20041;-78
2022/05/27 11:12:03;;;;;;;8.82;2.00;;;;;;;15.78;50.46;102057.34;5003588;28;20029;-77
2022/05/27 11:18:06;;;;;;;9.73;2.40;;;;;;;15.72;49.08;102057.53;5005248;28;20088;-77
2022/05/27 11:21:05;;;;;;;8.98;2.00;;;;;;;15.78;49.20;102049.50;5004556;28;20053;-77
2022/05/27 11:23:49;;;;;;;9.05;2.00;;;;;;;15.92;47.47;102064.88;5002595;28;20445;-78
2022/05/27 11:26:17;;;;;;;7.00;2.00;;;;;;;16.01;45.72;102087.38;5001255;28;20084;-77
2022/05/27 11:29:00;;;;;;;10.88;1.98;;;;;;;16.08;46.21;102065.28;5005656;28;20484;-75
2022/05/27 11:31:43;;;;;;;5.80;1.60;;;;;;;16.15;45.95;102063.31;5003872;28;20021;-75
2022/05/27 11:34:30;;;;;;;6.65;1.95;;;;;;;16.21;47.82;102066.66;4997968;28;20507;-79
2022/05/27 11:37:16;;;;;;;9.10;1.90;;;;;;;16.18;48.13;102071.13;5002161;28;20044;-74
2022/05/27 11:39:58;;;;;;;7.07;1.90;;;;;;;16.02;47.45;102070.72;4998360;28;20041;-75
2022/05/27 11:42:38;;;;;;;7.68;2.38;;;;;;;15.96;48.52;102077.03;4997051;28;20418;-81
2022/05/27 11:45:21;;;;;;;6.10;1.90;;;;;;;15.98;48.84;102071.72;4996145;28;20540;-78
2022/05/27 11:48:03;;;;;;;5.18;1.70;;;;;;;16.01;46.50;102084.75;4998646;28;20081;-80
2022/05/27 11:51:02;;;;;;;;;;;;;;;16.07;47.10;102085.44;5000241;28;20077;-79
2022/05/27 11:53:46;;;;;;;7.13;1.77;;;;;;;15.95;45.95;102079.66;4982988;28;19926;-76
2022/05/27 11:56:57;;;;;;;6.82;1.92;;;;;;;15.90;46.72;102078.03;4997310;28;21049;-76
2022/05/27 11:59:32;;;;;;;7.25;2.08;;;;;;;15.86;46.19;102086.91;5001911;28;20056;-75
2022/05/27 12:02:16;;;;;;;6.45;1.70;;;;;;;15.81;45.71;102088.75;4998491;28;20075;-75
2022/05/27 12:05:05;;;;;;;7.50;2.03;;;;;;;15.82;46.18;102087.88;4984445;28;20034;-79
2022/05/27 12:07:55;;;;;;;7.88;2.15;;;;;;;15.85;45.60;102089.53;4999918;28;20034;-76
2022/05/27 12:10:26;;;;;;;4.53;1.83;;;;;;;15.85;44.46;102087.81;4999983;28;20104;-76
2022/05/27 12:13:16;;;;;;;6.88;1.92;;;;;;;15.88;46.30;102064.13;5001446;28;20088;-76
2022/05/27 12:16:10;;;;;;;4.38;1.30;;;;;;;16.06;44.55;102081.09;4999645;28;20044;-75
2022/05/27 12:19:18;;;;;;;7.88;1.60;;;;;;;16.22;46.01;102073.63;4961619;28;20061;-75